Terminal Aerodrome Forecast
Issued by NWS

Home | Current Version | Previous Version | Text Only | Print | Product List | Glossary On
Versions: 1 2 3 4 5 6 7 8 9 10 11 12 13 14 15 16 17 18
000
FTUS41 KCAR 040539
TAFBHB
TAF
KBHB 040539Z 0406/0506 06009KT P6SM BKN035
     FM040800 07009KT 5SM BR BKN015
     FM041000 07009KT 5SM BR BKN025
     FM041600 09007KT P6SM BKN050
     FM050400 07007KT 2SM -SHRA BR OVC015=

USA.gov is the U.S. government's official web portal to all federal, state and local government web resources and services.